Impacts METAR Board
IDs:

KISM - Kissimmee Muni, FL, US

Updated at: 2200 UTC 30 Jun 2022
Potential Impact None Slight Moderate High
Time 30/10Z 30/11Z 30/12Z 30/13Z 30/14Z 30/15Z 30/16Z 30/17Z 30/18Z 30/19Z 30/20Z 30/21Z 30/22Z
Temp77 77 78 81 83 85 88 89 91 91 93 84 84
Dewpt74 74 74 74 74 71 73 70 71 70 69 72 72
Altim30.13 30.13 30.15 30.15 30.16 30.16 30.15 30.13 30.11 30.08 30.07 30.09 30.08
VIS10 10 10 10 10 10 10 10 10 10 10 10 10
CIG16 -- -- -- -- -- 35 -- -- -- 55 -- 65
CoverBKNCLRCLRFEWFEWFEWOVCCLRSCTSCTBKNFEWBKN
FltCatMVFRVFRVFRVFRVFRVFRVFRVFRVFRVFRVFRVFRVFR
WX------------------------VCTS
WDir000026000028026004080
WSpd0 0 0 0 4 0 0 0 9 5 3 9 14
WGst-- -- -- -- -- -- -- -- -- -- -- -- 18
Raw hourly METARs
KISM 300956Z AUTO 00000KT 10SM BKN016 25/23 A3013 RMK AO2 SLP202 T02500233 PNO $
KISM 301056Z 00000KT 10SM CLR 25/23 A3013 RMK AO2 SLP204 T02500233 PNO $
KISM 301156Z 00000KT 10SM CLR 26/23 A3015 RMK AO2 SLP207 6//// 7//// T02560233 10256 20239 53005 PNO $
KISM 301256Z 00000KT 10SM FEW012 27/23 A3015 RMK AO2 SLP208 T02720233 PNO $
KISM 301356Z 26004KT 10SM FEW001 28/23 A3016 RMK AO2 SLP214 T02830233 PNO $
KISM 301456Z 00000KT 10SM FEW034 29/22 A3016 RMK AO2 SLP213 6//// T02940217 50005 PNO $
KISM 301556Z 00000KT 10SM BKN035 OVC043 31/23 A3015 RMK AO2 SLP209 T03110228 PNO $
KISM 301656Z 00000KT 10SM CLR 32/21 A3013 RMK AO2 SLP202 T03170211 PNO $
KISM 301756Z 28009KT 10SM SCT090 33/22 A3011 RMK AO2 SLP195 6//// T03280217 10328 20256 58018 PNO $
KISM 301856Z 26005KT 10SM SCT090 33/21 A3008 RMK AO2 LTG DSNT N-E SLP186 T03280211 PNO $
KISM 301956Z VRB03KT 10SM BKN055 34/21 A3007 RMK AO2 LTG DSNT N AND NE SLP183 T03390206 PNO $
KISM 302056Z 04009KT 10SM FEW070 29/22 A3009 RMK AO2 WSHFT 2028 LTG DSNT SE TSB36E51 SLP187 6//// T02890222 55007 PNO $
KISM 302156Z 08014G18KT 10SM VCTS BKN065 BKN075 29/22 A3008 RMK AO2 LTG DSNT S TSB53 SLP184 T02890222 PNO $



Page loaded:  22:43 UTC  |   03:43 PM Pacific  |   04:43 PM Mountain  |   05:43 PM Central  |   06:43 PM Eastern

 

ADVISORIES

FORECASTS

FORECASTS

OBSERVATIONS

USER TOOLS

ABOUT US